Strona główna
METAR-TAF:

METAR-TAF

Lotnisko :

Port lotniczy Kunovice

Uherské Hradiště, Czechy

Szerokość geograficzna: 49-01-46N, Długość geograficzna: 017-26-23E, wysokość: 177 m

Aktualna obserwacja pogody

Raport powstał 20 minut temu, godzina 13:00 UTC
Wiatr 10 kt od południowo-południowy wschód
Temperatura 30°C
Wilgotność 52%
Ciśnienie 1015 hPa
Widzialność 10 km lub więcej
Brak chmur poniżej 1500 m i brak chmur cumulonimbus

METAR: LKKU 211300Z 15010KT CAVOK 30/19 Q1015

czas: 15:20 (13:20 UTC)


TAF: brakujący

Obserwacja i prognoza pogody dla ponad 4000 lotnisk (raport METAR i TAF).

Dostępne stacje oznaczono żółtymi i czerwonymi punktami na mapie.

Najedź kursorem aby zobaczyć nazwę stacji.

Kliknij aby zobaczyć obserwacje i prognozy pogody.

Aby zmienić mapę: kliknij na zielony przycisk z czarnym krzyżykiem, aby powiększyć; na zielony przycisk z myślnikiem, aby pomniejszyć; na zielone strzałki, aby przejść do map sąsiednich.


METAR-TAF: